Time;durP1;ratioP1;P1;durP2;ratioP2;P2;SDS_P1;SDS_P2;PMS_P1;PMS_P2;Temp;Humidity;BMP_temperature;BMP_pressure;BME280_temperature;BME280_humidity;BME280_pressure;Samples;Min_cycle;Max_cycle;Signal;HPM_P1;HPM_P2
2022/08/03 00:02:06;;;;;;;;;;;;;;;17.85;100.00;99098.08;1673364;86;20583;-70
2022/08/03 00:04:33;;;;;;;;;;;;;;;17.84;100.00;99097.87;1673355;86;20104;-70
2022/08/03 00:06:59;;;;;;;;;;;;;;;17.84;100.00;99102.03;1673312;86;21157;-70
2022/08/03 00:09:26;;;;;;;;;;;;;;;17.82;100.00;99101.61;1673367;86;20484;-70
2022/08/03 00:11:52;;;;;;;;;;;;;;;17.81;100.00;99100.00;1673233;85;20148;-70
2022/08/03 00:14:19;;;;;;;;;;;;;;;17.81;100.00;99100.80;1673363;86;20124;-70
2022/08/03 00:16:45;;;;;;;;;;;;;;;17.79;100.00;99093.44;1673322;86;20088;-70
2022/08/03 00:19:11;;;;;;;;;;;;;;;17.78;100.00;99093.81;1673601;86;21517;-71
2022/08/03 00:21:38;;;;;;;;;;;;;;;17.77;100.00;99098.56;1673212;85;20145;-70
2022/08/03 00:24:05;;;;;;;;;;;;;;;17.78;100.00;99093.81;1673387;86;20125;-70
2022/08/03 00:26:32;;;;;;;;;;;;;;;17.76;100.00;99091.41;1673170;85;20122;-70
2022/08/03 00:28:58;;;;;;;;;;;;;;;17.75;100.00;99091.20;1673094;86;20447;-70
2022/08/03 00:31:24;;;;;;;;;;;;;;;17.73;100.00;99094.94;1673317;86;21524;-70
2022/08/03 00:33:51;;;;;;;;;;;;;;;17.75;100.00;99096.75;1673308;86;20117;-71
2022/08/03 00:36:17;;;;;;;;;;;;;;;17.76;100.00;99095.58;1673605;86;20488;-69
2022/08/03 00:38:43;;;;;;;;;;;;;;;17.75;100.00;99098.14;1673209;86;20435;-70
2022/08/03 00:41:10;;;;;;;;;;;;;;;17.75;100.00;99103.69;1673376;86;20100;-69
2022/08/03 00:43:36;;;;;;;;;;;;;;;17.74;100.00;99099.90;1673604;86;21757;-70
2022/08/03 00:46:02;;;;;;;;;;;;;;;17.74;100.00;99100.70;1673253;86;20136;-69
2022/08/03 00:48:29;;;;;;;;;;;;;;;17.74;100.00;99095.73;1673259;86;20137;-70
2022/08/03 00:50:55;;;;;;;;;;;;;;;17.74;100.00;99097.92;1673596;86;20096;-70
2022/08/03 00:53:21;;;;;;;;;;;;;;;17.75;100.00;99098.14;1673622;86;20554;-69
2022/08/03 00:55:48;;;;;;;;;;;;;;;17.75;100.00;99095.95;1673278;86;21133;-69
2022/08/03 00:58:14;;;;;;;;;;;;;;;17.74;100.00;99096.53;1673530;85;20132;-69
2022/08/03 01:00:41;;;;;;;;;;;;;;;17.73;100.00;99096.91;1673274;86;20152;-70
2022/08/03 01:03:08;;;;;;;;;;;;;;;17.72;100.00;99096.70;1673340;86;20117;-69
2022/08/03 01:05:55;;;;;;;;;;;;;;;17.73;100.00;99090.77;1673565;85;20101;-69
2022/08/03 01:08:35;;;;;;;;;;;;;;;17.74;100.00;99097.12;1673429;85;21295;-69
2022/08/03 01:11:05;;;;;;;;;;;;;;;17.73;100.00;99098.30;1673536;86;20080;-69
2022/08/03 01:13:47;;;;;;;;;;;;;;;17.71;100.00;99096.48;1673365;86;20427;-70
2022/08/03 01:16:20;;;;;;;;;;;;;;;17.72;100.00;99100.27;1673539;86;20096;-69
2022/08/03 01:18:56;;;;;;;;;;;;;;;17.70;100.00;99094.30;1671981;85;20088;-70
2022/08/03 01:21:33;;;;;;;;;;;;;;;17.71;100.00;99100.06;1673610;86;21640;-70
2022/08/03 01:24:12;;;;;;;;;;;;;;;17.73;100.00;99096.33;1673201;85;20123;-69
2022/08/03 01:26:51;;;;;;;;;;;;;;;17.71;100.00;99098.67;1673725;85;20108;-69
2022/08/03 01:29:39;;;;;;;;;;;;;;;17.69;100.00;99095.47;1673271;85;20088;-69
2022/08/03 01:32:09;;;;;;;;;;;;;;;17.69;100.00;99095.47;1673576;85;20451;-69
2022/08/03 01:34:39;;;;;;;;;;;;;;;17.68;100.00;99093.87;1673300;86;21149;-69
2022/08/03 01:37:06;;;;;;;;;;;;;;;17.67;100.00;99092.27;1673521;85;20081;-70
2022/08/03 01:39:33;;;;;;;;;;;;;;;17.67;100.00;99092.85;1673334;86;20432;-69
2022/08/03 01:42:04;;;;;;;;;;;;;;;17.66;100.00;99097.60;1673482;86;20124;-70
2022/08/03 01:44:32;;;;;;;;;;;;;;;17.65;100.00;99096.00;1673452;85;20448;-69
2022/08/03 01:46:59;;;;;;;;;;;;;;;17.66;100.00;99085.70;1673257;86;21782;-69
2022/08/03 01:49:26;;;;;;;;;;;;;;;17.64;100.00;99090.20;1673212;86;20100;-70
2022/08/03 01:51:52;;;;;;;;;;;;;;;17.63;100.00;99091.38;1673574;85;20156;-69
2022/08/03 01:54:20;;;;;;;;;;;;;;;17.63;100.00;99094.16;1673305;86;38084;-69
2022/08/03 01:56:47;;;;;;;;;;;;;;;17.64;100.00;99097.73;1673281;86;20076;-69
2022/08/03 01:59:13;;;;;;;;;;;;;;;17.63;100.00;99093.35;1673262;86;21147;-70
2022/08/03 02:01:40;;;;;;;;;;;;;;;17.62;100.00;99089.78;1673256;86;20100;-70
2022/08/03 02:04:06;;;;;;;;;;;;;;;17.64;100.00;99092.18;1673572;85;20168;-70
2022/08/03 02:06:33;;;;;;;;;;;;;;;17.64;100.00;99097.14;1673271;86;20438;-70
2022/08/03 02:09:00;;;;;;;;;;;;;;;17.64;100.00;99091.59;1673368;85;20093;-70
2022/08/03 02:11:27;;;;;;;;;;;;;;;17.63;100.00;99096.93;1673244;86;21176;-71
2022/08/03 02:13:53;;;;;;;;;;;;;;;17.63;100.00;99095.55;1673255;86;20088;-70
2022/08/03 02:16:19;;;;;;;;;;;;;;;17.64;100.00;99098.53;1673322;86;20419;-70
2022/08/03 02:18:46;;;;;;;;;;;;;;;17.67;100.00;99101.98;1673201;85;20120;-70
2022/08/03 02:21:12;;;;;;;;;;;;;;;17.67;100.00;99099.20;1653996;86;20112;-71
2022/08/03 02:23:38;;;;;;;;;;;;;;;17.67;100.00;99099.79;1685749;84;21122;-69
2022/08/03 02:26:10;;;;;;;;;;;;;;;17.66;100.00;99091.25;1653671;85;20096;-70
2022/08/03 02:28:39;;;;;;;;;;;;;;;17.64;100.00;99097.14;1677868;84;20086;-70
2022/08/03 02:31:08;;;;;;;;;;;;;;;17.64;100.00;99096.34;1664910;85;20116;-70
2022/08/03 02:33:40;;;;;;;;;;;;;;;17.63;100.00;99098.32;1692053;84;20438;-70
2022/08/03 02:36:06;;;;;;;;;;;;;;;17.60;100.00;99095.48;1693158;84;20865;-71
2022/08/03 02:38:35;;;;;;;;;;;;;;;17.57;100.00;99094.84;1696055;84;20103;-70
2022/08/03 02:41:06;;;;;;;;;;;;;;;17.56;100.00;99103.76;1680908;85;20163;-70
2022/08/03 02:43:32;;;;;;;;;;;;;;;17.56;100.00;99094.63;1685616;84;20928;-71
2022/08/03 02:46:01;;;;;;;;;;;;;;;17.56;100.00;99089.08;1696943;84;20085;-70
2022/08/03 02:48:28;;;;;;;;;;;;;;;17.57;100.00;99097.03;1682051;84;22118;-70
2022/08/03 02:50:56;;;;;;;;;;;;;;;17.57;100.00;99101.78;1687743;84;20124;-71
2022/08/03 02:53:22;;;;;;;;;;;;;;;17.55;100.00;99106.31;1690307;84;20148;-71
2022/08/03 02:55:49;;;;;;;;;;;;;;;17.55;100.00;99103.55;1680869;85;20529;-70
2022/08/03 02:58:17;;;;;;;;;;;;;;;17.54;100.00;99101.14;1681017;85;20088;-69
2022/08/03 03:00:44;;;;;;;;;;;;;;;17.52;100.00;99101.52;1680968;84;22249;-70
2022/08/03 03:03:10;;;;;;;;;;;;;;;17.52;100.00;99102.91;1680864;85;20100;-71
2022/08/03 03:05:36;;;;;;;;;;;;;;;17.51;100.00;99095.75;1681226;85;20124;-71
2022/08/03 03:08:03;;;;;;;;;;;;;;;17.60;100.00;99101.84;1680832;85;20144;-70
2022/08/03 03:10:30;;;;;;;;;;;;;;;17.66;100.00;99105.93;1661719;85;20124;-70
2022/08/03 03:12:57;;;;;;;;;;;;;;;17.71;100.00;99104.81;1681073;85;21213;-70
2022/08/03 03:15:25;;;;;;;;;;;;;;;17.69;100.00;99105.19;1680965;84;20092;-70
2022/08/03 03:17:52;;;;;;;;;;;;;;;17.66;100.00;99104.55;1680330;85;20100;-71
2022/08/03 03:20:20;;;;;;;;;;;;;;;17.64;100.00;99113.80;1661738;85;20124;-70
2022/08/03 03:22:47;;;;;;;;;;;;;;;17.69;100.00;99113.52;1680935;84;20088;-70
2022/08/03 03:25:14;;;;;;;;;;;;;;;17.78;100.00;99116.02;1681172;85;21094;-71
2022/08/03 03:27:40;;;;;;;;;;;;;;;17.83;100.00;99119.86;1680863;85;20096;-70
2022/08/03 03:30:08;;;;;;;;;;;;;;;17.88;100.00;99114.58;1678351;85;20430;-70
2022/08/03 03:32:36;;;;;;;;;;;;;;;17.92;100.00;99113.42;1673438;86;20088;-71
2022/08/03 03:35:03;;;;;;;;;;;;;;;17.96;100.00;99114.86;1673379;86;20475;-70
2022/08/03 03:37:30;;;;;;;;;;;;;;;17.97;100.00;99117.85;1654348;86;21270;-70
2022/08/03 03:39:57;;;;;;;;;;;;;;;17.93;100.00;99122.55;1679631;84;20168;-70
2022/08/03 03:42:24;;;;;;;;;;;;;;;17.88;100.00;99125.09;1673416;84;20152;-70
2022/08/03 03:44:50;;;;;;;;;;;;;;;17.82;100.00;99132.14;1672969;86;20718;-70
2022/08/03 03:47:17;;;;;;;;;;;;;;;17.77;100.00;99137.43;1672999;86;20088;-70
2022/08/03 03:49:43;;;;;;;;;;;;;;;17.73;100.00;99141.33;1672926;85;21141;-71
2022/08/03 03:52:09;;;;;;;;;;;;;;;17.69;100.00;99142.66;1672958;86;20129;-71
2022/08/03 03:54:40;;;;;;;;;;;;;;;17.67;100.00;99145.00;1672860;86;20088;-70
2022/08/03 03:57:07;;;;;;;;;;;;;;;17.66;100.00;99146.18;1672890;86;20159;-69
2022/08/03 03:59:38;;;;;;;;;;;;;;;17.64;100.00;99151.86;1673016;85;20156;-70
2022/08/03 04:02:06;;;;;;;;;;;;;;;17.61;100.00;99153.40;1673192;86;21109;-71
2022/08/03 04:12:51;;;;;;;;;;;;;;;17.63;100.00;99146.09;1725819;83;20152;-71
2022/08/03 04:15:19;;;;;;;;;;;;;;;17.61;100.00;99149.83;1725837;83;21174;-69
2022/08/03 04:17:45;;;;;;;;;;;;;;;17.62;100.00;99147.27;1726037;83;20455;-70
2022/08/03 04:20:11;;;;;;;;;;;;;;;17.62;100.00;99146.67;1705282;83;20095;-71
2022/08/03 04:22:38;;;;;;;;;;;;;;;17.61;100.00;99145.66;1725712;83;20171;-69
2022/08/03 04:25:08;;;;;;;;;;;;;;;17.63;100.00;99143.31;1725971;83;20447;-69
2022/08/03 04:27:36;;;;;;;;;;;;;;;17.66;100.00;99144.79;1725799;83;21762;-69
2022/08/03 04:30:04;;;;;;;;;;;;;;;17.70;100.00;99144.26;1725926;83;20166;-69
2022/08/03 04:32:30;;;;;;;;;;;;;;;17.75;100.00;99152.27;1725714;83;20092;-70
2022/08/03 04:34:56;;;;;;;;;;;;;;;17.77;100.00;99156.86;1725788;83;20104;-70
2022/08/03 04:37:36;;;;;;;;;;;;;;;17.80;100.00;99151.16;1725745;83;20127;-69
2022/08/03 04:40:05;;;;;;;;;;;;;;;17.83;100.00;99163.48;1725941;83;21138;-69
2022/08/03 04:42:31;;;;;;;;;;;;;;;17.81;100.00;99166.05;1706510;83;20423;-69
2022/08/03 04:44:57;;;;;;;;;;;;;;;17.79;100.00;99162.84;1660642;84;20137;-69
2022/08/03 04:47:24;;;;;;;;;;;;;;;17.83;100.00;99157.94;1681942;84;20128;-69
2022/08/03 04:49:50;;;;;;;;;;;;;;;17.85;100.00;99161.14;1673267;86;20089;-69
2022/08/03 04:52:17;;;;;;;;;;;;;;;17.87;100.00;99165.73;1673040;86;21189;-73
2022/08/03 04:54:44;;;;;;;;;;;;;;;17.88;100.00;99168.14;1673147;85;20100;-72
2022/08/03 04:57:11;;;;;;;;;;;;;;;17.91;100.00;99166.59;1673130;85;20088;-70
2022/08/03 04:59:37;;;;;;;;;;;;;;;17.93;100.00;99153.91;1674307;84;20443;-70
2022/08/03 05:02:03;;;;;;;;;;;;;;;17.98;100.00;99152.78;1691192;84;20094;-71
2022/08/03 05:04:31;;;;;;;;;;;;;;;18.00;100.00;99165.70;1686712;84;21791;-71
2022/08/03 05:06:57;;;;;;;;;;;;;;;18.03;100.00;99160.79;1673261;86;20099;-70
2022/08/03 05:09:23;;;;;;;;;;;;;;;18.04;100.00;99155.45;1673451;86;20092;-71
2022/08/03 05:11:50;;;;;;;;;;;;;;;18.06;100.00;99165.59;1673011;85;20514;-77
2022/08/03 05:14:17;;;;;;;;;;;;;;;18.13;100.00;99162.92;1689704;84;20425;-79
2022/08/03 05:16:43;;;;;;;;;;;;;;;18.17;100.00;99163.77;1690629;84;21109;-74
2022/08/03 05:19:10;;;;;;;;;;;;;;;18.21;100.00;99163.83;1671837;85;20140;-76
2022/08/03 05:21:36;;;;;;;;;;;;;;;18.24;100.00;99170.02;1672950;85;20159;-80
2022/08/03 05:24:03;;;;;;;;;;;;;;;18.24;100.00;99168.63;1672809;85;20842;-77
2022/08/03 05:26:30;;;;;;;;;;;;;;;18.26;100.00;99174.61;1673233;86;20148;-77
2022/08/03 05:28:56;;;;;;;;;;;;;;;18.30;100.00;99183.21;1673463;85;21481;-77
2022/08/03 05:31:23;;;;;;;;;;;;;;;18.34;100.00;99177.70;1673059;86;20124;-78
2022/08/03 05:33:49;;;;;;;;;;;;;;;18.35;100.00;99188.44;1673144;85;20162;-78
2022/08/03 05:36:15;;;;;;;;;;;;;;;18.40;100.00;99181.76;1673466;86;20100;-79
2022/08/03 05:38:42;;;;;;;;;;;;;;;18.45;100.00;99191.95;1673236;86;20439;-81
2022/08/03 05:41:08;;;;;;;;;;;;;;;18.51;100.00;99191.59;1673222;86;21120;-78
2022/08/03 05:43:35;;;;;;;;;;;;;;;18.53;100.00;99192.02;1672383;85;20124;-74
2022/08/03 05:46:01;;;;;;;;;;;;;;;18.57;100.00;99188.70;1674221;84;20096;-74
2022/08/03 05:48:28;;;;;;;;;;;;;;;18.60;100.00;99190.72;1676046;84;20143;-74
2022/08/03 05:50:54;;;;;;;;;;;;;;;18.61;100.00;99190.97;1684865;84;20132;-74
2022/08/03 05:53:20;;;;;;;;;;;;;;;18.63;100.00;99189.41;1673486;85;21121;-74
2022/08/03 05:55:47;;;;;;;;;;;;;;;18.67;100.00;99195.81;1671894;85;20120;-78
2022/08/03 05:58:13;;;;;;;;;;;;;;;18.69;100.00;99202.39;1672391;86;20109;-74
2022/08/03 06:00:40;;;;;;;;;;;;;;;18.69;100.00;99202.39;1679193;84;20469;-74
2022/08/03 06:03:06;;;;;;;;;;;;;;;18.71;100.00;99190.30;1701320;84;20090;-73
2022/08/03 06:05:35;;;;;;;;;;;;;;;18.74;100.00;99198.69;1693345;84;21125;-74
2022/08/03 06:08:03;;;;;;;;;;;;;;;18.79;100.00;99194.77;1701694;84;20203;-74
2022/08/03 06:10:30;;;;;;;;;;;;;;;18.88;100.00;99195.28;1701151;84;20091;-73
2022/08/03 06:12:57;;;;;;;;;;;;;;;18.96;100.00;99199.74;1701237;84;20110;-71
2022/08/03 06:15:23;;;;;;;;;;;;;;;19.04;100.00;99200.63;1711506;83;20100;-71
2022/08/03 06:17:50;;;;;;;;;;;;;;;19.08;100.00;99204.22;1702138;83;21104;-76
2022/08/03 06:20:18;;;;;;;;;;;;;;;19.04;100.00;99205.59;1701459;84;20128;-74
2022/08/03 06:22:45;;;;;;;;;;;;;;;19.04;100.00;99208.38;1686470;84;20096;-77
2022/08/03 06:25:11;;;;;;;;;;;;;;;19.01;100.00;99206.95;1672823;86;20132;-75
2022/08/03 06:27:41;;;;;;;;;;;;;;;19.06;100.00;99207.38;1671350;86;20208;-74
2022/08/03 06:30:10;;;;;;;;;;;;;;;19.11;100.00;99214.59;1673251;86;21150;-73
2022/08/03 06:32:37;;;;;;;;;;;;;;;19.12;100.00;99214.20;1673213;86;20145;-74
2022/08/03 06:35:07;;;;;;;;;;;;;;;19.16;100.00;99214.24;1673504;86;20454;-74
2022/08/03 06:37:44;;;;;;;;;;;;;;;19.21;100.00;99217.27;1673212;86;20475;-74
2022/08/03 06:40:14;;;;;;;;;;;;;;;19.28;100.00;99220.13;1672929;85;20440;-73
2022/08/03 06:42:41;;;;;;;;;;;;;;;19.34;100.00;99219.41;1673405;85;21715;-73
2022/08/03 06:45:08;;;;;;;;;;;;;;;19.40;100.00;99222.05;1673167;86;20472;-74
2022/08/03 06:47:36;;;;;;;;;;;;;;;19.47;100.00;99226.89;1673250;85;20117;-73
2022/08/03 06:50:03;;;;;;;;;;;;;;;19.53;100.00;99222.61;1673221;86;20459;-73
2022/08/03 06:52:30;;;;;;;;;;;;;;;19.66;100.00;99223.09;1673578;86;20124;-73
2022/08/03 06:54:57;;;;;;;;;;;;;;;19.74;100.00;99226.95;1673267;86;21598;-73
2022/08/03 06:57:23;;;;;;;;;;;;;;;19.90;100.00;99218.92;1673361;86;20164;-73
2022/08/03 06:59:50;;;;;;;;;;;;;;;20.16;100.00;99222.91;1673314;86;20105;-73
2022/08/03 07:02:18;;;;;;;;;;;;;;;20.44;100.00;99229.27;1673189;85;20090;-72
2022/08/03 07:04:44;;;;;;;;;;;;;;;20.67;100.00;99225.62;1673383;85;20156;-73
2022/08/03 07:07:12;;;;;;;;;;;;;;;20.80;100.00;99225.27;1673251;85;20144;-73
2022/08/03 07:09:39;;;;;;;;;;;;;;;20.87;100.00;99228.87;1673167;86;20088;-74
2022/08/03 07:12:06;;;;;;;;;;;;;;;21.00;100.00;99229.31;1673666;86;20459;-73
2022/08/03 07:14:33;;;;;;;;;;;;;;;21.10;100.00;99232.74;1673294;86;20132;-73
2022/08/03 07:16:59;;;;;;;;;;;;;;;21.17;100.00;99229.97;1673430;85;20125;-73
2022/08/03 07:19:25;;;;;;;;;;;;;;;21.26;100.00;99224.05;1673602;86;21110;-73
2022/08/03 07:21:51;;;;;;;;;;;;;;;21.35;100.00;99234.24;1673576;86;20097;-73
2022/08/03 07:24:21;;;;;;;;;;;;;;;21.50;100.00;99230.26;1673344;86;20128;-73
2022/08/03 07:26:47;;;;;;;;;;;;;;;21.72;100.00;99234.67;1673361;86;20441;-73
2022/08/03 07:29:14;;;;;;;;;;;;;;;21.90;100.00;99237.48;1673464;86;20088;-73
2022/08/03 07:31:40;;;;;;;;;;;;;;;22.08;100.00;99228.50;1673276;85;21525;-73
2022/08/03 07:34:07;;;;;;;;;;;;;;;22.16;100.00;99227.89;1673336;86;20096;-73
2022/08/03 07:36:33;;;;;;;;;;;;;;;22.29;99.23;99229.08;1673366;85;20478;-73
2022/08/03 07:39:00;;;;;;;;;;;;;;;22.36;98.77;99223.47;1673260;85;20387;-73
2022/08/03 07:41:26;;;;;;;;;;;;;;;22.47;98.87;99229.05;1673696;85;20128;-72
2022/08/03 07:43:53;;;;;;;;;;;;;;;22.65;98.00;99224.77;1673329;85;21157;-72
2022/08/03 07:46:19;;;;;;;;;;;;;;;22.81;95.88;99231.34;1673360;85;20100;-73
2022/08/03 07:48:45;;;;;;;;;;;;;;;22.92;95.67;99223.11;1673373;85;20447;-72
2022/08/03 07:51:11;;;;;;;;;;;;;;;23.10;95.33;99241.22;1673347;86;20125;-72
2022/08/03 07:53:38;;;;;;;;;;;;;;;23.23;91.23;99234.53;1673380;86;20153;-73
2022/08/03 07:56:04;;;;;;;;;;;;;;;23.35;91.26;99229.27;1673245;86;21245;-72
2022/08/03 07:58:31;;;;;;;;;;;;;;;23.49;90.61;99233.98;1673386;85;20148;-73
2022/08/03 08:00:57;;;;;;;;;;;;;;;23.61;90.36;99234.13;1673399;86;20088;-73
2022/08/03 08:03:25;;;;;;;;;;;;;;;23.74;89.33;99240.02;1673688;86;20452;-72
2022/08/03 08:05:52;;;;;;;;;;;;;;;23.92;88.84;99244.89;1673356;85;20100;-73
2022/08/03 08:08:19;;;;;;;;;;;;;;;24.19;87.96;99244.46;1673404;85;21792;-72
2022/08/03 08:10:46;;;;;;;;;;;;;;;24.50;85.67;99243.16;1673275;85;20113;-73
2022/08/03 08:13:12;;;;;;;;;;;;;;;24.86;85.93;99235.91;1673328;86;20136;-73
2022/08/03 08:15:39;;;;;;;;;;;;;;;25.20;84.72;99234.52;1673302;86;20089;-72
2022/08/03 08:18:05;;;;;;;;;;;;;;;25.26;77.37;99237.05;1673630;85;20104;-72
2022/08/03 08:20:33;;;;;;;;;;;;;;;25.05;79.11;99242.14;1673559;86;21119;-73
2022/08/03 08:23:01;;;;;;;;;;;;;;;24.96;80.60;99239.84;1673341;85;20129;-72
2022/08/03 08:25:27;;;;;;;;;;;;;;;24.94;80.44;99240.23;1673567;86;20089;-72
2022/08/03 08:27:54;;;;;;;;;;;;;;;25.04;81.52;99232.13;1673587;86;20128;-72
2022/08/03 08:30:21;;;;;;;;;;;;;;;25.25;81.47;99229.83;1673249;86;20092;-73
2022/08/03 08:32:48;;;;;;;;;;;;;;;25.36;78.92;99231.70;1673123;85;21882;-72
2022/08/03 08:35:14;;;;;;;;;;;;;;;25.32;78.62;99235.96;1673241;86;20093;-72
2022/08/03 08:37:42;;;;;;;;;;;;;;;25.14;76.05;99234.80;1673222;86;20124;-72
2022/08/03 08:40:08;;;;;;;;;;;;;;;24.86;78.17;99240.73;1673387;86;20384;-72
2022/08/03 08:42:38;;;;;;;;;;;;;;;24.69;79.68;99241.16;1673354;85;20144;-72
2022/08/03 08:45:07;;;;;;;;;;;;;;;24.60;80.94;99243.05;1652962;86;20999;-72
2022/08/03 08:47:36;;;;;;;;;;;;;;;24.56;80.30;99245.10;1673488;86;20452;-73
2022/08/03 08:50:02;;;;;;;;;;;;;;;24.46;79.55;99241.80;1673319;85;20183;-72
2022/08/03 08:52:29;;;;;;;;;;;;;;;24.43;79.47;99246.04;1673344;85;20152;-72
2022/08/03 08:55:02;;;;;;;;;;;;;;;24.72;81.24;99240.32;1673675;86;20084;-72
2022/08/03 08:57:31;;;;;;;;;;;;;;;25.31;77.94;99237.98;1673314;85;21820;-72
2022/08/03 08:59:57;;;;;;;;;;;;;;;25.84;76.63;99242.02;1673505;86;20085;-72
2022/08/03 09:02:24;;;;;;;;;;;;;;;26.21;75.27;99239.56;1673091;86;20120;-72
2022/08/03 09:04:50;;;;;;;;;;;;;;;26.56;75.50;99239.56;1673351;86;20679;-73
2022/08/03 09:07:17;;;;;;;;;;;;;;;26.92;71.78;99234.61;1685897;83;20165;-72
2022/08/03 09:09:44;;;;;;;;;;;;;;;27.34;71.54;99231.50;1699817;83;21566;-72
2022/08/03 09:12:10;;;;;;;;;;;;;;;27.80;67.58;99241.72;1685870;84;20428;-71
2022/08/03 09:14:37;;;;;;;;;;;;;;;28.10;65.71;99234.94;1673235;85;20120;-71
2022/08/03 09:17:03;;;;;;;;;;;;;;;28.51;64.42;99242.73;1673369;86;20100;-75
2022/08/03 09:19:30;;;;;;;;;;;;;;;28.84;63.11;99246.91;1673607;86;20124;-75
2022/08/03 09:22:15;;;;;;;;;;;;;;;29.10;61.59;99239.28;1673306;85;21825;-74
2022/08/03 09:24:56;;;;;;;;;;;;;;;29.19;61.63;99247.27;1673295;86;20100;-74
2022/08/03 09:27:23;;;;;;;;;;;;;;;29.27;62.07;99239.99;1673008;85;20113;-71
2022/08/03 09:29:50;;;;;;;;;;;;;;;29.10;59.26;99244.93;1673369;85;20399;-72
2022/08/03 09:32:21;;;;;;;;;;;;;;;28.75;61.88;99244.70;1673349;86;20447;-71
2022/08/03 09:34:48;;;;;;;;;;;;;;;28.49;63.06;99253.68;1673306;85;21882;-72
2022/08/03 09:37:16;;;;;;;;;;;;;;;28.22;63.92;99253.22;1678395;84;20117;-72
2022/08/03 09:39:44;;;;;;;;;;;;;;;28.23;64.47;99249.95;1694894;84;20098;-72
2022/08/03 09:42:16;;;;;;;;;;;;;;;28.38;64.12;99248.14;1701449;84;20440;-73
2022/08/03 09:44:47;;;;;;;;;;;;;;;28.29;62.92;99250.20;1691829;83;20090;-70
2022/08/03 09:47:31;;;;;;;;;;;;;;;27.99;62.70;99249.92;1697096;84;21136;-72
2022/08/03 09:50:06;;;;;;;;;;;;;;;27.94;63.87;99244.20;1690013;84;20090;-70
2022/08/03 09:52:34;;;;;;;;;;;;;;;28.22;64.54;99234.87;1693002;84;20139;-74
2022/08/03 09:55:02;;;;;;;;;;;;;;;28.59;63.00;99238.48;1679016;83;20601;-75
2022/08/03 09:57:29;;;;;;;;;;;;;;;28.81;62.41;99228.80;1692876;84;20155;-77
2022/08/03 10:00:05;;;;;;;;;;;;;;;28.91;60.36;99229.11;1692428;84;21149;-78
2022/08/03 10:02:34;;;;;;;;;;;;;;;29.07;61.39;99231.70;1692965;84;20306;-75
2022/08/03 10:05:01;;;;;;;;;;;;;;;29.21;58.65;99222.80;1690759;84;20098;-75
2022/08/03 10:07:29;;;;;;;;;;;;;;;29.07;59.45;99228.25;1692651;84;20086;-77
2022/08/03 10:09:58;;;;;;;;;;;;;;;28.88;59.44;99238.48;1700608;84;20237;-75
2022/08/03 10:12:25;;;;;;;;;;;;;;;28.88;60.33;99234.90;1699821;84;23029;-74
2022/08/03 10:14:52;;;;;;;;;;;;;;;29.13;58.91;99234.94;1701269;84;20126;-76
2022/08/03 10:17:21;;;;;;;;;;;;;;;29.09;59.35;99237.08;1701332;84;20110;-73
2022/08/03 10:19:47;;;;;;;;;;;;;;;28.97;57.56;99233.59;1699895;84;20178;-77
2022/08/03 10:22:22;;;;;;;;;;;;;;;28.94;58.90;99237.31;1701407;84;20118;-72
2022/08/03 10:24:59;;;;;;;;;;;;;;;29.16;61.15;99221.94;1701478;84;21153;-75
2022/08/03 10:27:28;;;;;;;;;;;;;;;29.45;60.12;99213.42;1701643;84;20432;-74
2022/08/03 10:29:55;;;;;;;;;;;;;;;29.37;59.01;99226.16;1701445;84;20094;-75
2022/08/03 10:32:30;;;;;;;;;;;;;;;28.91;59.95;99226.91;1706839;83;20608;-73
2022/08/03 10:35:13;;;;;;;;;;;;;;;28.38;61.74;99228.38;1719373;82;20101;-74
2022/08/03 10:37:44;;;;;;;;;;;;;;;27.82;62.90;99223.73;1719416;82;21295;-74
2022/08/03 10:40:14;;;;;;;;;;;;;;;27.41;64.91;99222.89;1719084;83;20121;-74
2022/08/03 10:42:42;;;;;;;;;;;;;;;27.33;66.39;99224.89;1719449;83;20097;-74
2022/08/03 10:45:21;;;;;;;;;;;;;;;27.63;67.64;99223.84;1719730;83;20097;-71
2022/08/03 10:47:49;;;;;;;;;;;;;;;28.19;66.17;99218.17;1718991;83;20145;-72
2022/08/03 10:50:16;;;;;;;;;;;;;;;28.51;62.58;99217.33;1719311;83;21792;-80
2022/08/03 10:53:05;;;;;;;;;;;;;;;28.47;62.34;99215.84;1719401;83;20118;-74
2022/08/03 10:58:43;;;;;;;;;;;;;;;27.85;62.71;99219.25;1719763;83;20117;-75
2022/08/03 11:01:10;;;;;;;;;;;;;;;27.43;64.28;99228.09;1719266;83;20429;-77
2022/08/03 11:03:56;;;;;;;;;;;;;;;27.04;67.05;99228.36;1719475;82;21121;-76
2022/08/03 11:06:26;;;;;;;;;;;;;;;26.71;69.42;99205.47;1719199;82;20121;-75
2022/08/03 11:09:14;;;;;;;;;;;;;;;26.36;70.72;99214.02;1719593;82;20101;-71
2022/08/03 11:11:45;;;;;;;;;;;;;;;26.12;71.72;99214.00;1719470;83;20207;-73
2022/08/03 11:14:14;;;;;;;;;;;;;;;25.95;73.49;99217.94;1718978;82;20101;-72
2022/08/03 11:16:44;;;;;;;;;;;;;;;25.89;74.50;99219.65;1718183;83;21200;-73
2022/08/03 11:19:13;;;;;;;;;;;;;;;25.87;72.86;99224.91;1719273;82;20146;-81
2022/08/03 11:21:51;;;;;;;;;;;;;;;25.78;74.09;99230.27;1719592;83;20161;-79
2022/08/03 11:24:45;;;;;;;;;;;;;;;25.46;77.36;99230.11;1719469;83;20101;-76
2022/08/03 11:27:20;;;;;;;;;;;;;;;24.93;80.21;99227.41;1719346;83;20077;-79
2022/08/03 11:30:04;;;;;;;;;;;;;;;24.34;83.68;99238.91;1719347;82;21106;-77
2022/08/03 11:32:45;;;;;;;;;;;;;;;23.92;87.05;99236.48;1715101;83;20134;-72
2022/08/03 11:35:22;;;;;;;;;;;;;;;23.57;90.62;99232.76;1701568;83;20417;-76
2022/08/03 11:38:03;;;;;;;;;;;;;;;23.42;94.64;99234.02;1701571;83;20106;-75
2022/08/03 11:40:48;;;;;;;;;;;;;;;23.36;95.83;99230.06;1701516;84;20090;-74
2022/08/03 11:43:34;;;;;;;;;;;;;;;23.37;98.09;99229.65;1701552;84;21898;-76
2022/08/03 11:46:04;;;;;;;;;;;;;;;23.45;99.55;99229.00;1701485;84;20146;-76
2022/08/03 11:48:39;;;;;;;;;;;;;;;23.59;100.00;99231.74;1701767;83;20082;-74
2022/08/03 11:51:06;;;;;;;;;;;;;;;23.71;99.60;99238.23;1701431;84;20557;-77
2022/08/03 11:53:33;;;;;;;;;;;;;;;23.73;97.29;99239.83;1701492;84;20137;-74
2022/08/03 11:56:00;;;;;;;;;;;;;;;23.66;97.47;99248.51;1701583;84;21140;-75
2022/08/03 11:58:27;;;;;;;;;;;;;;;23.60;97.93;99241.74;1701424;84;20424;-76
2022/08/03 12:01:04;;;;;;;;;;;;;;;23.57;98.40;99245.37;1701486;84;20154;-74
2022/08/03 12:03:32;;;;;;;;;;;;;;;23.53;98.70;99242.36;1701453;84;20146;-76
2022/08/03 12:06:00;;;;;;;;;;;;;;;23.46;98.33;99244.61;1701755;84;20086;-72
2022/08/03 12:08:29;;;;;;;;;;;;;;;23.33;95.74;99247.68;1701569;84;21190;-76
2022/08/03 12:10:57;;;;;;;;;;;;;;;23.17;95.57;99238.36;1701479;84;20086;-85
2022/08/03 12:13:24;;;;;;;;;;;;;;;23.09;97.25;99231.83;1701496;84;20453;-76
2022/08/03 12:15:53;;;;;;;;;;;;;;;23.01;97.94;99226.27;1701375;84;20098;-85
2022/08/03 12:18:20;;;;;;;;;;;;;;;22.99;98.98;99218.08;1701304;84;20429;-85
2022/08/03 12:20:48;;;;;;;;;;;;;;;22.98;100.00;99217.88;1701774;83;21096;-87
2022/08/03 12:23:14;;;;;;;;;;;;;;;22.98;100.00;99208.88;1701465;84;20125;-87
2022/08/03 12:25:46;;;;;;;;;;;;;;;22.98;100.00;99213.69;1701471;84;20126;-76
2022/08/03 12:28:17;;;;;;;;;;;;;;;22.99;100.00;99215.28;1700997;84;20098;-89
2022/08/03 12:30:49;;;;;;;;;;;;;;;23.04;100.00;99216.25;1701304;84;20153;-81
2022/08/03 12:33:21;;;;;;;;;;;;;;;23.02;100.00;99214.47;1700531;83;21726;-76
2022/08/03 12:36:10;;;;;;;;;;;;;;;22.98;99.57;99211.69;1700851;84;20114;-75
2022/08/03 12:38:41;;;;;;;;;;;;;;;22.96;99.18;99208.49;1679789;84;20126;-76
2022/08/03 12:41:14;;;;;;;;;;;;;;;22.87;100.00;99217.93;1701377;84;20113;-82
2022/08/03 12:43:48;;;;;;;;;;;;;;;22.85;100.00;99218.14;1701833;84;20114;-78
2022/08/03 12:46:24;;;;;;;;;;;;;;;22.84;100.00;99226.34;1701287;84;21151;-77
2022/08/03 12:49:07;;;;;;;;;;;;;;;22.83;100.00;99226.14;1701268;84;20086;-77
2022/08/03 12:51:44;;;;;;;;;;;;;;;22.77;100.00;99220.13;1700263;83;20469;-76
2022/08/03 12:54:20;;;;;;;;;;;;;;;22.69;100.00;99231.16;1679927;84;20118;-76
2022/08/03 12:57:06;;;;;;;;;;;;;;;22.59;100.00;99236.17;1701254;83;20102;-76
2022/08/03 12:59:33;;;;;;;;;;;;;;;22.42;100.00;99233.65;1685599;84;21134;-75
2022/08/03 13:02:06;;;;;;;;;;;;;;;;;;1680632;84;20555;-78